createdAt,value
2018-10-05T00:00:31.608Z,11.83
2018-10-05T00:03:00.751Z,13.80
2018-10-05T00:05:29.656Z,14.47
2018-10-05T00:07:59.054Z,10.37
2018-10-05T00:10:28.094Z,10.83
2018-10-05T00:12:57.661Z,12.70
2018-10-05T00:15:26.707Z,11.00
2018-10-05T00:17:55.715Z,12.60
2018-10-05T00:20:24.704Z,12.17
2018-10-05T00:22:54.175Z,9.90
2018-10-05T00:25:23.144Z,12.93
2018-10-05T00:27:52.120Z,10.33
2018-10-05T00:30:20.948Z,11.77
2018-10-05T00:32:49.740Z,11.73
2018-10-05T00:35:18.656Z,11.27
2018-10-05T00:37:47.472Z,12.97
2018-10-05T00:40:16.281Z,11.00
2018-10-05T00:42:45.087Z,10.87
2018-10-05T00:45:17.282Z,11.47
2018-10-05T00:47:46.241Z,14.07
2018-10-05T00:50:15.205Z,11.30
2018-10-05T00:52:44.027Z,17.40
2018-10-05T00:55:12.855Z,15.10
2018-10-05T00:57:41.680Z,12.50
2018-10-05T01:00:10.527Z,10.33
2018-10-05T01:02:39.448Z,12.33
2018-10-05T01:05:08.257Z,11.70
2018-10-05T01:07:37.086Z,11.43
2018-10-05T01:10:05.935Z,11.50
2018-10-05T01:12:34.801Z,11.47
2018-10-05T01:15:03.767Z,11.33
2018-10-05T01:17:32.639Z,12.03
2018-10-05T01:20:01.476Z,13.90
2018-10-05T01:22:30.395Z,12.20
2018-10-05T01:24:59.883Z,11.33
2018-10-05T01:27:28.619Z,11.13
2018-10-05T01:29:57.709Z,16.17
2018-10-05T01:32:26.528Z,12.47
2018-10-05T01:34:55.327Z,14.40
2018-10-05T01:37:24.160Z,13.70
2018-10-05T01:39:52.980Z,13.40
2018-10-05T01:42:21.817Z,13.83
2018-10-05T01:44:50.608Z,15.40
2018-10-05T01:47:19.441Z,12.47
2018-10-05T01:49:48.239Z,13.13
2018-10-05T01:52:17.048Z,14.53
2018-10-05T01:54:45.880Z,13.50
2018-10-05T01:57:14.729Z,14.30
2018-10-05T01:59:43.532Z,14.57
2018-10-05T02:02:12.348Z,12.87
2018-10-05T02:04:41.139Z,15.77
2018-10-05T02:07:09.956Z,13.50
2018-10-05T02:09:38.752Z,11.83
2018-10-05T02:12:07.589Z,12.97
2018-10-05T02:14:36.428Z,11.37
2018-10-05T02:17:05.311Z,16.60
2018-10-05T02:19:34.122Z,12.90
2018-10-05T02:22:02.956Z,12.30
2018-10-05T02:24:31.750Z,12.93
2018-10-05T02:27:00.584Z,14.67
2018-10-05T02:29:29.411Z,15.70
2018-10-05T02:31:58.262Z,13.67
2018-10-05T02:34:27.032Z,14.10
2018-10-05T02:36:55.880Z,11.93
2018-10-05T02:39:24.684Z,11.20
2018-10-05T02:41:53.554Z,11.27
2018-10-05T02:44:22.321Z,12.47
2018-10-05T02:46:51.137Z,15.87
2018-10-05T02:49:19.953Z,11.17
2018-10-05T02:51:48.741Z,14.73
2018-10-05T02:54:17.554Z,14.57
2018-10-05T02:56:46.337Z,14.13
2018-10-05T02:59:15.152Z,14.70
2018-10-05T03:01:55.365Z,12.53
2018-10-05T03:04:24.148Z,13.63
2018-10-05T03:06:52.968Z,11.07
2018-10-05T03:09:21.857Z,13.03
2018-10-05T03:11:50.671Z,11.00
2018-10-05T03:14:19.498Z,11.67
2018-10-05T03:16:48.459Z,10.60
2018-10-05T03:19:19.280Z,13.90
2018-10-05T03:21:48.226Z,13.80
2018-10-05T03:24:17.085Z,13.93
2018-10-05T03:26:45.864Z,17.80
2018-10-05T03:29:14.702Z,15.67
2018-10-05T03:31:43.530Z,12.20
2018-10-05T03:34:12.364Z,12.57
2018-10-05T03:36:41.156Z,14.50
2018-10-05T03:39:10.008Z,13.87
2018-10-05T03:41:38.813Z,13.67
2018-10-05T03:44:07.632Z,13.50
2018-10-05T03:46:36.403Z,11.70
2018-10-05T03:49:05.562Z,10.10
2018-10-05T03:51:34.300Z,12.80
2018-10-05T03:54:03.177Z,13.27
2018-10-05T03:56:31.955Z,12.20
2018-10-05T03:59:00.800Z,14.23
2018-10-05T04:01:29.605Z,12.77
2018-10-05T04:03:58.428Z,13.57
2018-10-05T04:06:27.240Z,16.00
2018-10-05T04:08:56.072Z,12.17
2018-10-05T04:11:24.887Z,11.40
2018-10-05T04:13:53.705Z,13.23
2018-10-05T04:16:22.512Z,15.37
2018-10-05T04:18:51.445Z,13.77
2018-10-05T04:21:20.588Z,15.40
2018-10-05T04:23:49.372Z,14.80
2018-10-05T04:26:18.180Z,15.10
2018-10-05T04:28:46.507Z,16.30
2018-10-05T04:31:14.779Z,14.13
2018-10-05T04:33:43.088Z,19.77
2018-10-05T04:36:11.409Z,15.93
2018-10-05T04:38:39.702Z,15.93
2018-10-05T04:41:08.094Z,12.97
2018-10-05T04:43:36.335Z,14.03
2018-10-05T04:46:04.653Z,15.17
2018-10-05T04:48:32.959Z,14.60
2018-10-05T04:51:01.272Z,12.73
2018-10-05T04:53:29.621Z,15.17
2018-10-05T04:55:57.907Z,15.07
2018-10-05T04:58:26.205Z,17.20
2018-10-05T05:00:54.528Z,16.50
2018-10-05T05:03:22.868Z,14.90
2018-10-05T05:05:51.168Z,16.70
2018-10-05T05:08:19.484Z,20.03
2018-10-05T05:10:47.813Z,17.37
2018-10-05T05:13:16.277Z,20.30
2018-10-05T05:15:44.567Z,19.50
2018-10-05T05:18:12.912Z,29.17
2018-10-05T05:20:41.196Z,21.13
2018-10-05T05:23:10.648Z,20.23
2018-10-05T05:25:39.016Z,18.40
2018-10-05T05:28:07.440Z,18.50
2018-10-05T05:30:35.732Z,19.73
2018-10-05T05:33:04.064Z,21.33
2018-10-05T05:35:32.426Z,24.10
2018-10-05T05:38:00.719Z,22.90
2018-10-05T05:40:29.045Z,20.53
2018-10-05T05:42:57.341Z,21.13
2018-10-05T05:45:25.692Z,23.60
2018-10-05T05:47:54.884Z,20.03
2018-10-05T05:50:23.155Z,23.63
2018-10-05T05:52:51.984Z,18.17
2018-10-05T05:55:20.292Z,17.23
2018-10-05T05:57:48.575Z,24.70
2018-10-05T06:00:16.871Z,23.80
2018-10-05T06:02:45.149Z,22.23
2018-10-05T06:05:13.469Z,20.80
2018-10-05T06:07:41.767Z,23.03
2018-10-05T06:10:10.080Z,23.07
2018-10-05T06:12:38.433Z,24.47
2018-10-05T06:15:06.749Z,22.53
2018-10-05T06:17:35.073Z,22.50
2018-10-05T06:20:03.504Z,23.93
2018-10-05T06:22:32.040Z,22.17
2018-10-05T06:25:01.320Z,26.43
2018-10-05T06:27:29.963Z,26.83
2018-10-05T06:29:58.248Z,31.67
2018-10-05T06:32:26.624Z,30.00
2018-10-05T06:34:55.004Z,30.07
2018-10-05T06:37:26.937Z,28.50
2018-10-05T06:39:55.357Z,33.80
2018-10-05T06:42:23.724Z,28.07
2018-10-05T06:44:52.069Z,26.73
2018-10-05T06:47:20.311Z,27.27
2018-10-05T06:49:48.648Z,27.37
2018-10-05T06:52:17.288Z,28.83
2018-10-05T06:54:45.605Z,28.23
2018-10-05T06:57:13.882Z,27.63
2018-10-05T06:59:42.196Z,28.20
2018-10-05T07:02:10.480Z,32.37
2018-10-05T07:04:38.768Z,36.23
2018-10-05T07:07:07.178Z,31.10
2018-10-05T07:09:35.492Z,28.97
2018-10-05T07:12:03.807Z,37.60
2018-10-05T07:14:32.145Z,33.23
2018-10-05T07:17:00.465Z,35.17
2018-10-05T07:19:28.804Z,27.73
2018-10-05T07:21:57.122Z,29.60
2018-10-05T07:24:25.444Z,29.37
2018-10-05T07:26:53.760Z,30.40
2018-10-05T07:29:22.072Z,29.00
2018-10-05T07:31:50.392Z,30.60
2018-10-05T07:34:18.723Z,29.17
2018-10-05T07:36:47.077Z,27.37
2018-10-05T07:39:15.390Z,32.77
2018-10-05T07:41:43.715Z,28.80
2018-10-05T07:44:12.118Z,30.87
2018-10-05T07:46:40.432Z,28.90
2018-10-05T07:49:08.780Z,30.67
2018-10-05T07:51:37.154Z,27.87
2018-10-05T07:54:05.511Z,27.30
2018-10-05T07:56:33.922Z,28.40
2018-10-05T07:59:02.257Z,25.77
2018-10-05T08:01:30.572Z,23.43
2018-10-05T08:03:58.897Z,29.27
2018-10-05T08:06:27.219Z,21.40
2018-10-05T08:08:55.628Z,30.83
2018-10-05T08:11:23.956Z,24.07
2018-10-05T08:13:52.341Z,20.53
2018-10-05T08:16:20.675Z,26.30
2018-10-05T08:18:49.076Z,19.90
2018-10-05T08:21:17.449Z,26.47
2018-10-05T08:23:45.787Z,22.20
2018-10-05T08:26:14.163Z,25.93
2018-10-05T08:28:42.509Z,26.70
2018-10-05T08:31:10.814Z,27.87
2018-10-05T08:33:39.346Z,25.17
2018-10-05T08:36:07.716Z,22.20
2018-10-05T08:38:36.100Z,26.30
2018-10-05T08:41:04.423Z,19.93
2018-10-05T08:43:32.743Z,21.33
2018-10-05T08:46:01.223Z,29.43
2018-10-05T08:48:29.417Z,19.77
2018-10-05T08:50:57.725Z,19.20
2018-10-05T08:53:26.024Z,27.13
2018-10-05T08:55:54.335Z,26.03
2018-10-05T08:58:22.651Z,21.47
2018-10-05T09:00:51.036Z,21.27
2018-10-05T09:03:19.752Z,21.43
2018-10-05T09:05:48.122Z,20.63
2018-10-05T09:08:16.352Z,20.83
2018-10-05T09:10:44.675Z,26.70
2018-10-05T09:13:13.063Z,20.27
2018-10-05T09:15:41.385Z,19.53
2018-10-05T09:18:11.825Z,19.17
2018-10-05T09:20:40.288Z,20.03
2018-10-05T09:23:08.908Z,17.93
2018-10-05T09:25:37.205Z,16.07
2018-10-05T09:28:05.499Z,16.97
2018-10-05T09:30:33.887Z,13.03
2018-10-05T09:33:02.129Z,13.27
2018-10-05T09:35:30.462Z,12.87
2018-10-05T09:37:58.902Z,13.37
2018-10-05T09:40:27.132Z,12.57
2018-10-05T09:42:55.439Z,13.13
2018-10-05T09:45:23.852Z,12.20
2018-10-05T09:47:52.091Z,12.83
2018-10-05T09:50:20.407Z,12.23
2018-10-05T09:52:48.930Z,15.07
2018-10-05T09:55:17.173Z,11.67
2018-10-05T09:57:45.484Z,12.63
2018-10-05T10:00:19.292Z,14.27
2018-10-05T10:02:47.578Z,11.37
2018-10-05T10:05:15.882Z,12.70
2018-10-05T10:07:44.208Z,13.53
2018-10-05T10:10:12.504Z,15.97
2018-10-05T10:12:40.815Z,15.10
2018-10-05T10:15:09.124Z,13.73
2018-10-05T10:17:37.401Z,12.57
2018-10-05T10:20:05.793Z,11.17
2018-10-05T10:22:34.111Z,13.10
2018-10-05T10:25:02.424Z,13.10
2018-10-05T10:27:30.790Z,9.53
2018-10-05T10:29:59.076Z,9.27
2018-10-05T10:32:27.371Z,11.90
2018-10-05T10:34:55.702Z,12.67
2018-10-05T10:37:23.998Z,12.57
2018-10-05T10:39:52.322Z,9.50
2018-10-05T10:42:20.574Z,9.60
2018-10-05T10:44:48.886Z,8.97
2018-10-05T10:47:17.168Z,6.60
2018-10-05T10:49:45.472Z,4.97
2018-10-05T10:52:13.743Z,7.53
2018-10-05T10:54:42.067Z,6.87
2018-10-05T10:57:10.363Z,6.60
2018-10-05T10:59:38.671Z,5.10
2018-10-05T11:02:06.955Z,4.57
2018-10-05T11:04:35.437Z,4.20
2018-10-05T11:07:03.620Z,6.60
2018-10-05T11:09:31.944Z,6.03
2018-10-05T11:12:00.374Z,5.27
2018-10-05T11:14:28.736Z,4.57
2018-10-05T11:17:05.405Z,3.10
2018-10-05T11:19:33.712Z,4.30
2018-10-05T11:22:02.078Z,3.07
2018-10-05T11:24:30.568Z,3.87
2018-10-05T11:26:59.319Z,3.83
2018-10-05T11:29:27.778Z,3.83
2018-10-05T11:31:56.036Z,6.13
2018-10-05T11:34:24.368Z,5.07
2018-10-05T11:36:52.671Z,6.87
2018-10-05T11:39:21.025Z,4.40
2018-10-05T11:41:49.396Z,3.70
2018-10-05T11:44:17.910Z,4.87
2018-10-05T11:46:46.226Z,7.03
2018-10-05T11:49:14.532Z,5.40
2018-10-05T11:51:42.886Z,5.47
2018-10-05T11:54:11.260Z,6.17
2018-10-05T11:56:39.608Z,4.87
2018-10-05T11:59:08.280Z,3.43
2018-10-05T12:01:36.680Z,3.17
2018-10-05T12:04:05.145Z,2.87
2018-10-05T12:06:33.527Z,3.93
2018-10-05T12:09:01.890Z,3.77
2018-10-05T12:11:30.321Z,3.07
2018-10-05T12:13:58.770Z,3.23
2018-10-05T12:16:27.174Z,3.70
2018-10-05T12:18:55.633Z,6.33
2018-10-05T12:21:23.988Z,2.70
2018-10-05T12:23:52.288Z,3.50
2018-10-05T12:26:20.788Z,2.87
2018-10-05T12:28:49.080Z,4.97
2018-10-05T12:31:17.480Z,5.67
2018-10-05T12:33:45.921Z,2.83
2018-10-05T12:36:15.231Z,3.50
2018-10-05T12:38:43.579Z,3.37
2018-10-05T12:41:11.908Z,4.27
2018-10-05T12:43:40.247Z,3.33
2018-10-05T12:46:08.568Z,2.13
2018-10-05T12:48:36.936Z,1.93
2018-10-05T12:51:05.261Z,2.90
2018-10-05T12:53:33.609Z,3.17
2018-10-05T12:56:01.937Z,4.63
2018-10-05T12:58:30.230Z,5.50
2018-10-05T13:00:58.545Z,4.17
2018-10-05T13:03:26.852Z,4.20
2018-10-05T13:05:55.183Z,3.20
2018-10-05T13:08:23.500Z,3.80
2018-10-05T13:10:51.833Z,2.00
2018-10-05T13:13:20.123Z,3.00
2018-10-05T13:15:48.645Z,3.60
2018-10-05T13:18:16.929Z,3.67
2018-10-05T13:20:45.264Z,5.10
2018-10-05T13:23:13.543Z,4.53
2018-10-05T13:25:41.829Z,4.75
2018-10-05T13:28:10.131Z,4.23
2018-10-05T13:30:38.404Z,6.42
2018-10-05T13:33:06.704Z,3.20
2018-10-05T13:35:35.002Z,1.85
2018-10-05T13:38:03.324Z,3.52
2018-10-05T13:40:31.649Z,3.52
2018-10-05T13:42:59.992Z,2.37
2018-10-05T13:45:28.730Z,4.33
2018-10-05T13:47:57.030Z,1.82
2018-10-05T13:50:25.309Z,3.40
2018-10-05T13:52:53.624Z,7.08
2018-10-05T13:55:21.959Z,2.12
2018-10-05T13:57:50.306Z,4.62
2018-10-05T14:00:18.606Z,5.10
2018-10-05T14:02:46.972Z,4.22
2018-10-05T14:05:15.280Z,2.98
2018-10-05T14:07:43.579Z,3.20
2018-10-05T14:10:11.909Z,2.83
2018-10-05T14:12:40.235Z,5.58
2018-10-05T14:15:08.651Z,5.08
2018-10-05T14:17:36.896Z,3.12
2018-10-05T14:20:05.240Z,3.08
2018-10-05T14:22:33.512Z,2.02
2018-10-05T14:25:01.820Z,3.83
2018-10-05T14:27:30.120Z,5.28
2018-10-05T14:29:58.421Z,2.70
2018-10-05T14:32:26.703Z,4.35
2018-10-05T14:34:54.990Z,4.78
2018-10-05T14:37:23.301Z,3.90
2018-10-05T14:39:51.601Z,2.87
2018-10-05T14:42:19.956Z,7.53
2018-10-05T14:44:48.239Z,3.85
2018-10-05T14:47:16.560Z,4.30
2018-10-05T14:49:44.868Z,3.45
2018-10-05T14:52:13.400Z,4.87
2018-10-05T14:54:41.730Z,4.07
2018-10-05T14:57:10.194Z,2.37
2018-10-05T14:59:38.392Z,4.10
2018-10-05T15:02:06.691Z,4.50
2018-10-05T15:04:34.996Z,4.60
2018-10-05T15:07:03.381Z,3.07
2018-10-05T15:09:31.623Z,3.80
2018-10-05T15:11:59.898Z,3.80
2018-10-05T15:14:28.226Z,3.83
2018-10-05T15:16:56.535Z,3.13
2018-10-05T15:19:24.808Z,3.63
2018-10-05T15:21:53.117Z,2.33
2018-10-05T15:24:21.452Z,5.33
2018-10-05T15:26:49.770Z,5.63
2018-10-05T15:29:18.052Z,4.57
2018-10-05T15:31:46.383Z,2.53
2018-10-05T15:34:14.655Z,6.07
2018-10-05T15:36:43.163Z,5.07
2018-10-05T15:39:11.432Z,5.53
2018-10-05T15:41:39.812Z,5.50
2018-10-05T15:44:08.119Z,4.70
2018-10-05T15:47:10.689Z,4.40
2018-10-05T15:49:39.707Z,2.90
2018-10-05T15:52:08.054Z,2.70
2018-10-05T15:54:36.436Z,6.43
2018-10-05T15:57:04.839Z,3.03
2018-10-05T15:59:34.148Z,6.93
2018-10-05T16:02:02.495Z,10.87
2018-10-05T16:04:30.998Z,9.57
2018-10-05T16:06:59.544Z,2.93
2018-10-05T16:09:27.948Z,3.47
2018-10-05T16:11:56.377Z,5.20
2018-10-05T16:14:25.589Z,4.27
2018-10-05T16:16:53.885Z,2.97
2018-10-05T16:19:22.297Z,3.83
2018-10-05T16:21:50.773Z,4.23
2018-10-05T16:24:21.036Z,3.97
2018-10-05T16:26:49.519Z,3.20
2018-10-05T16:29:17.840Z,7.93
2018-10-05T16:31:46.136Z,4.67
2018-10-05T16:34:14.448Z,2.60
2018-10-05T16:36:42.725Z,4.07
2018-10-05T16:39:11.898Z,2.77
2018-10-05T16:41:40.191Z,6.17
2018-10-05T16:44:08.800Z,7.07
2018-10-05T16:46:38.761Z,8.83
2018-10-05T16:49:08.420Z,6.43
2018-10-05T16:51:36.804Z,7.37
2018-10-05T16:54:05.173Z,4.97
2018-10-05T16:56:33.502Z,6.00
2018-10-05T16:59:02.354Z,4.30
2018-10-05T17:01:30.636Z,5.50
2018-10-05T17:03:59.003Z,9.23
2018-10-05T17:06:27.369Z,9.70
2018-10-05T17:08:59.108Z,3.40
2018-10-05T17:11:27.467Z,4.47
2018-10-05T17:13:55.835Z,5.47
2018-10-05T17:16:24.152Z,4.03
2018-10-05T17:18:52.488Z,6.57
2018-10-05T17:21:20.773Z,5.33
2018-10-05T17:23:49.050Z,4.53
2018-10-05T17:26:17.365Z,6.73
2018-10-05T17:28:45.641Z,3.77
2018-10-05T17:31:13.944Z,3.83
2018-10-05T17:33:42.313Z,4.27
2018-10-05T17:36:10.711Z,5.70
2018-10-05T17:38:39.104Z,5.10
2018-10-05T17:41:07.676Z,4.57
2018-10-05T17:43:35.980Z,4.53
2018-10-05T17:46:04.495Z,4.80
2018-10-05T17:48:32.856Z,10.40
2018-10-05T17:51:01.292Z,9.67
2018-10-05T17:53:29.584Z,10.93
2018-10-05T17:55:57.890Z,8.80
2018-10-05T17:58:26.441Z,5.53
2018-10-05T18:00:55.116Z,6.83
2018-10-05T18:03:23.425Z,9.83
2018-10-05T18:05:51.767Z,4.80
2018-10-05T18:08:20.153Z,5.33
2018-10-05T18:10:48.368Z,7.60
2018-10-05T18:13:16.735Z,7.20
2018-10-05T18:15:47.090Z,6.67
2018-10-05T18:18:18.043Z,7.43
2018-10-05T18:20:46.491Z,6.57
2018-10-05T18:23:14.939Z,7.73
2018-10-05T18:25:43.274Z,9.67
2018-10-05T18:28:11.623Z,9.93
2018-10-05T18:30:40.003Z,7.10
2018-10-05T18:33:08.337Z,6.67
2018-10-05T18:35:36.676Z,10.80
2018-10-05T18:38:05.057Z,7.57
2018-10-05T18:40:33.364Z,9.23
2018-10-05T18:43:01.734Z,7.53
2018-10-05T18:45:30.029Z,10.07
2018-10-05T18:47:58.357Z,8.80
2018-10-05T18:50:26.664Z,9.40
2018-10-05T18:52:54.986Z,10.17
2018-10-05T18:55:23.284Z,6.07
2018-10-05T18:57:51.612Z,6.23
2018-10-05T19:00:19.978Z,11.03
2018-10-05T19:02:48.259Z,11.07
2018-10-05T19:05:16.599Z,7.63
2018-10-05T19:07:44.907Z,7.30
2018-10-05T19:10:13.181Z,7.27
2018-10-05T19:12:41.499Z,9.03
2018-10-05T19:15:09.804Z,7.00
2018-10-05T19:17:38.394Z,6.60
2018-10-05T19:20:06.779Z,6.37
2018-10-05T19:22:35.169Z,8.07
2018-10-05T19:25:03.500Z,9.07
2018-10-05T19:27:31.945Z,6.83
2018-10-05T19:30:00.272Z,7.67
2018-10-05T19:32:28.676Z,8.03
2018-10-05T19:34:57.055Z,10.27
2018-10-05T19:37:25.364Z,8.27
2018-10-05T19:39:53.692Z,8.47
2018-10-05T19:42:21.992Z,7.27
2018-10-05T19:44:50.293Z,6.17
2018-10-05T19:47:18.620Z,8.13
2018-10-05T19:49:46.896Z,8.77
2018-10-05T19:52:15.189Z,7.00
2018-10-05T19:54:43.477Z,6.53
2018-10-05T19:57:11.816Z,6.27
2018-10-05T19:59:40.108Z,7.40
2018-10-05T20:02:08.730Z,7.73
2018-10-05T20:04:37.495Z,7.27
2018-10-05T20:20:15.704Z,10.83
2018-10-05T20:22:44.552Z,7.77
2018-10-05T20:25:13.377Z,9.20
2018-10-05T20:27:42.263Z,10.23
2018-10-05T20:30:11.232Z,9.53
2018-10-05T20:32:40.111Z,9.93
2018-10-05T20:35:08.868Z,6.80
2018-10-05T20:37:38.022Z,7.93
2018-10-05T20:40:06.616Z,6.60
2018-10-05T20:42:35.452Z,9.97
2018-10-05T20:45:04.673Z,7.93
2018-10-05T20:47:33.519Z,8.67
2018-10-05T20:50:02.625Z,7.27
2018-10-05T20:52:31.420Z,6.23
2018-10-05T20:55:00.247Z,7.57
2018-10-05T20:57:29.235Z,7.07
2018-10-05T20:59:58.092Z,6.30
2018-10-05T21:02:27.183Z,6.53
2018-10-05T21:04:56.801Z,9.77
2018-10-05T21:07:25.619Z,6.87
2018-10-05T21:09:54.418Z,9.43
2018-10-05T21:12:23.525Z,9.40
2018-10-05T21:14:52.352Z,6.23
2018-10-05T21:17:21.680Z,5.53
2018-10-05T21:19:50.644Z,7.07
2018-10-05T21:22:19.496Z,6.47
2018-10-05T21:24:48.424Z,5.97
2018-10-05T21:27:18.900Z,7.00
2018-10-05T21:29:47.860Z,6.97
2018-10-05T21:32:17.693Z,7.67
2018-10-05T21:34:46.526Z,7.87
2018-10-05T21:37:15.488Z,9.93
2018-10-05T21:39:44.333Z,8.47
2018-10-05T21:42:13.348Z,9.07
2018-10-05T21:44:42.287Z,8.07
2018-10-05T21:47:11.119Z,8.87
2018-10-05T21:49:40.085Z,8.37
2018-10-05T21:52:08.927Z,9.20
2018-10-05T21:54:38.876Z,8.53
2018-10-05T21:57:07.802Z,8.53
2018-10-05T21:59:36.603Z,8.60
2018-10-05T22:02:06.895Z,8.67
2018-10-05T22:04:35.935Z,11.33
2018-10-05T22:07:04.755Z,8.87
2018-10-05T22:09:33.532Z,10.50
2018-10-05T22:12:02.401Z,8.97
2018-10-05T22:14:31.282Z,9.50
2018-10-05T22:17:00.421Z,10.37
2018-10-05T22:19:29.406Z,8.63
2018-10-05T22:21:58.313Z,9.37
2018-10-05T22:24:27.148Z,10.37
2018-10-05T22:26:55.983Z,7.43
2018-10-05T22:29:24.852Z,7.30
2018-10-05T22:31:53.671Z,7.23
2018-10-05T22:34:22.563Z,7.00
2018-10-05T22:36:51.496Z,7.13
2018-10-05T22:39:20.525Z,6.70
2018-10-05T22:41:49.398Z,6.63
2018-10-05T22:44:18.266Z,6.60
2018-10-05T22:46:47.241Z,6.30
2018-10-05T22:49:16.240Z,6.80
2018-10-05T22:51:45.167Z,6.60
2018-10-05T22:54:13.940Z,6.37
2018-10-05T22:56:44.455Z,6.70
2018-10-05T22:59:13.576Z,8.17
2018-10-05T23:01:42.383Z,7.70
2018-10-05T23:04:11.908Z,8.77
2018-10-05T23:06:40.728Z,11.20
2018-10-05T23:09:10.013Z,10.90
2018-10-05T23:11:38.931Z,10.87
2018-10-05T23:14:07.712Z,10.93
2018-10-05T23:16:36.598Z,14.30
2018-10-05T23:19:06.114Z,13.20
2018-10-05T23:21:35.012Z,14.83
2018-10-05T23:24:03.843Z,17.83
2018-10-05T23:26:32.755Z,16.00
2018-10-05T23:29:01.593Z,14.30
2018-10-05T23:31:30.456Z,17.33
2018-10-05T23:33:59.302Z,14.27
2018-10-05T23:36:28.192Z,13.20
2018-10-05T23:38:57.572Z,16.30
2018-10-05T23:41:26.512Z,10.43
2018-10-05T23:43:56.567Z,10.90
2018-10-05T23:46:25.383Z,11.43
2018-10-05T23:48:54.276Z,11.43
2018-10-05T23:51:23.096Z,8.30
2018-10-05T23:53:52.001Z,10.87
2018-10-05T23:56:21.021Z,8.73
2018-10-05T23:58:49.900Z,9.17
